Аэропорт: Пашковский. Краснодар

ICAO: URKK

METAR:
2020-08-12 07:00:00
URKK 120700Z 27002MPS CAVOK 28/16 Q1011 R23L/CLRD70 NOSIG RMK QFE755
METAR:
2020-08-12 04:55:00
TAF URKK 120455Z 1206/1306 30003G08MPS 9999 SCT040 TEMPO 1209/1306 25006G12MPS -TSRA BKN020CB